Time;durP1;ratioP1;P1;durP2;ratioP2;P2;SDS_P1;SDS_P2;PMS_P1;PMS_P2;Temp;Humidity;BMP_temperature;BMP_pressure;BME280_temperature;BME280_humidity;BME280_pressure;Samples;Min_cycle;Max_cycle;Signal;HPM_P1;HPM_P2
2021/05/17 00:02:10;;;;;;;1.17;0.80;;;14.20;82.50;;;;;;5056281;28;20024;-61
2021/05/17 00:04:36;;;;;;;1.67;1.00;;;14.20;82.40;;;;;;5057404;28;20541;-62
2021/05/17 00:07:06;;;;;;;1.88;1.10;;;14.20;82.30;;;;;;5060230;28;20033;-62
2021/05/17 00:09:32;;;;;;;2.60;1.13;;;14.20;82.20;;;;;;5050531;28;20025;-61
2021/05/17 00:11:58;;;;;;;2.53;1.65;;;14.20;82.20;;;;;;5058806;28;20132;-61
2021/05/17 00:14:24;;;;;;;4.90;1.60;;;14.20;82.30;;;;;;5060142;28;20550;-61
2021/05/17 00:16:50;;;;;;;3.45;1.58;;;14.20;82.20;;;;;;5062413;28;20024;-62
2021/05/17 00:19:15;;;;;;;2.55;1.42;;;14.10;82.20;;;;;;5042514;28;20570;-61
2021/05/17 00:21:41;;;;;;;3.35;1.58;;;14.10;82.30;;;;;;5059464;28;20040;-62
2021/05/17 00:24:07;;;;;;;2.95;1.40;;;14.10;82.40;;;;;;5044362;28;20139;-62
2021/05/17 00:26:33;;;;;;;3.65;1.20;;;14.10;82.30;;;;;;5063274;28;20032;-61
2021/05/17 00:28:59;;;;;;;4.47;1.70;;;14.10;82.30;;;;;;5059228;28;20590;-61
2021/05/17 00:31:25;;;;;;;2.47;1.60;;;14.10;82.30;;;;;;5063347;28;20510;-62
2021/05/17 00:33:50;;;;;;;1.73;1.38;;;14.10;82.40;;;;;;5046234;28;20040;-62
2021/05/17 00:36:16;;;;;;;3.17;1.50;;;14.10;82.30;;;;;;5043392;28;20053;-61
2021/05/17 00:38:42;;;;;;;3.03;1.35;;;14.10;82.40;;;;;;5044919;28;20028;-62
2021/05/17 00:41:07;;;;;;;2.95;1.55;;;14.00;82.40;;;;;;5061423;28;20028;-61
2021/05/17 00:43:37;;;;;;;3.80;1.45;;;14.00;82.50;;;;;;5057022;28;20037;-61
2021/05/17 00:46:07;;;;;;;3.80;1.40;;;13.90;82.50;;;;;;5055902;28;20557;-62
2021/05/17 00:48:34;;;;;;;1.10;1.00;;;14.00;82.50;;;;;;5058867;28;20111;-61
2021/05/17 00:51:01;;;;;;;2.10;1.20;;;14.00;82.50;;;;;;5040413;28;20507;-62
2021/05/17 00:53:26;;;;;;;2.13;1.30;;;14.00;82.50;;;;;;5062300;28;20086;-62
2021/05/17 00:55:52;;;;;;;1.45;1.20;;;14.00;82.60;;;;;;5062423;28;20202;-62
2021/05/17 00:58:17;;;;;;;2.80;1.30;;;13.90;82.60;;;;;;5066257;28;20082;-62
2021/05/17 01:00:43;;;;;;;1.85;1.40;;;13.90;82.60;;;;;;5060466;28;20067;-62
2021/05/17 01:03:09;;;;;;;1.55;1.00;;;13.90;82.60;;;;;;5068205;28;20043;-62
2021/05/17 01:05:36;;;;;;;2.42;1.05;;;13.90;82.60;;;;;;5061507;28;20388;-61
2021/05/17 01:08:02;;;;;;;3.38;1.40;;;13.90;82.60;;;;;;5045331;28;20108;-61
2021/05/17 01:10:27;;;;;;;4.00;1.80;;;13.90;82.60;;;;;;5064157;28;20021;-61
2021/05/17 01:12:53;;;;;;;1.88;1.20;;;13.80;82.60;;;;;;5047660;28;20045;-61
2021/05/17 01:15:19;;;;;;;3.10;1.27;;;13.80;82.70;;;;;;5047243;28;20033;-62
2021/05/17 01:17:44;;;;;;;5.40;1.38;;;13.80;82.70;;;;;;5046952;28;20094;-61
2021/05/17 01:20:21;;;;;;;3.00;1.60;;;13.80;82.60;;;;;;5059116;28;20052;-62
2021/05/17 01:23:29;;;;;;;1.85;1.00;;;13.80;82.60;;;;;;5064764;28;20033;-62
2021/05/17 01:25:34;;;;;;;3.72;1.45;;;13.80;82.60;;;;;;5060068;28;20139;-61
2021/05/17 01:28:00;;;;;;;4.00;1.60;;;13.80;82.70;;;;;;5054829;28;20127;-61
2021/05/17 01:30:26;;;;;;;2.83;1.35;;;13.80;82.70;;;;;;5046218;28;20055;-61
2021/05/17 01:32:52;;;;;;;4.00;1.48;;;13.80;82.80;;;;;;5059708;28;20110;-61
2021/05/17 01:35:18;;;;;;;5.60;1.13;;;13.70;82.70;;;;;;5056810;28;20303;-61
2021/05/17 01:37:44;;;;;;;2.53;1.00;;;13.70;82.70;;;;;;5047836;28;20036;-61
2021/05/17 01:40:10;;;;;;;4.53;1.15;;;13.70;82.80;;;;;;5047126;28;20454;-61
2021/05/17 01:42:39;;;;;;;2.60;1.15;;;13.70;82.70;;;;;;5046083;28;20067;-61
2021/05/17 01:45:06;;;;;;;2.28;1.15;;;13.60;82.70;;;;;;5063972;28;20067;-61
2021/05/17 01:47:31;;;;;;;4.15;1.33;;;13.60;82.70;;;;;;5047154;28;20377;-61
2021/05/17 01:49:58;;;;;;;4.10;1.30;;;13.60;82.70;;;;;;5047031;28;20036;-62
2021/05/17 01:52:24;;;;;;;5.78;1.55;;;13.60;82.60;;;;;;5064094;28;20016;-62
2021/05/17 01:54:50;;;;;;;1.77;0.90;;;13.50;82.60;;;;;;5045740;28;20025;-62
2021/05/17 01:57:15;;;;;;;2.13;1.40;;;13.60;82.70;;;;;;5047146;28;20033;-62
2021/05/17 01:59:41;;;;;;;3.75;1.38;;;13.60;82.70;;;;;;5055670;28;20029;-62
2021/05/17 02:02:07;;;;;;;5.32;3.15;;;13.60;82.60;;;;;;5063052;28;20073;-61
2021/05/17 02:04:32;;;;;;;5.53;2.50;;;13.50;82.60;;;;;;5044742;28;20037;-62
2021/05/17 02:06:58;;;;;;;4.18;2.10;;;13.50;82.80;;;;;;5066763;28;20087;-61
2021/05/17 02:09:26;;;;;;;3.47;2.05;;;13.50;82.80;;;;;;5062988;28;20043;-62
2021/05/17 02:11:52;;;;;;;3.35;2.03;;;13.50;82.80;;;;;;5061649;28;20021;-62
2021/05/17 02:14:18;;;;;;;4.47;2.00;;;13.50;83.00;;;;;;5066265;28;20025;-61
2021/05/17 02:16:43;;;;;;;3.20;1.63;;;13.50;82.90;;;;;;5046502;28;20043;-61
2021/05/17 02:19:09;;;;;;;3.22;1.55;;;13.40;82.90;;;;;;5062504;28;20041;-61
2021/05/17 02:21:35;;;;;;;5.70;2.08;;;13.40;83.00;;;;;;5064297;28;20044;-62
2021/05/17 02:24:03;;;;;;;6.82;1.70;;;13.40;83.00;;;;;;5060875;28;20507;-61
2021/05/17 02:26:28;;;;;;;5.22;1.65;;;13.40;83.00;;;;;;5045034;28;20112;-61
2021/05/17 02:28:54;;;;;;;3.47;1.92;;;13.40;83.00;;;;;;5065947;28;20107;-61
2021/05/17 02:31:20;;;;;;;4.03;1.90;;;13.40;83.00;;;;;;5045678;28;20089;-61
2021/05/17 02:33:45;;;;;;;6.80;1.65;;;13.30;83.00;;;;;;5058677;28;20032;-61
2021/05/17 02:36:11;;;;;;;3.30;1.45;;;13.30;83.00;;;;;;5060996;28;20037;-61
2021/05/17 02:38:37;;;;;;;3.60;1.58;;;13.30;83.00;;;;;;5055544;28;20029;-61
2021/05/17 02:41:04;;;;;;;4.25;1.52;;;13.40;83.10;;;;;;5064420;28;20031;-61
2021/05/17 02:43:29;;;;;;;4.65;1.70;;;13.30;83.00;;;;;;5056603;28;20155;-62
2021/05/17 02:45:55;;;;;;;4.00;1.70;;;13.30;83.00;;;;;;5046584;28;20565;-61
2021/05/17 02:48:27;;;;;;;4.28;2.53;;;13.30;83.00;;;;;;5065311;28;20325;-61
2021/05/17 02:50:53;;;;;;;3.55;1.42;;;13.30;83.00;;;;;;5064513;28;20052;-61
2021/05/17 02:53:35;;;;;;;4.20;1.70;;;13.20;83.00;;;;;;5060671;28;20141;-61
2021/05/17 02:56:08;;;;;;;4.88;1.67;;;13.20;83.00;;;;;;5061073;28;20020;-61
2021/05/17 02:58:36;;;;;;;3.92;1.50;;;13.20;82.90;;;;;;5057285;28;20064;-62
2021/05/17 03:01:25;;;;;;;3.83;1.50;;;13.20;82.90;;;;;;5064434;28;20466;-61
2021/05/17 03:03:52;;;;;;;3.85;1.60;;;13.20;82.90;;;;;;5062082;28;20127;-62
2021/05/17 03:06:39;;;;;;;5.03;1.30;;;13.20;82.90;;;;;;5055857;28;20029;-62
2021/05/17 03:09:08;;;;;;;3.10;1.20;;;13.20;82.90;;;;;;5059312;28;20441;-62
2021/05/17 03:11:40;;;;;;;4.25;1.50;;;13.10;82.90;;;;;;5063994;28;20044;-61
2021/05/17 03:14:07;;;;;;;4.97;1.60;;;13.10;82.90;;;;;;5055070;28;20401;-62
2021/05/17 03:16:33;;;;;;;5.68;1.60;;;13.10;82.90;;;;;;5051209;28;20040;-62
2021/05/17 03:18:58;;;;;;;3.03;1.20;;;13.10;82.90;;;;;;5061574;28;20025;-60
2021/05/17 03:21:26;;;;;;;3.67;1.48;;;13.10;82.90;;;;;;5055466;28;20794;-61
2021/05/17 03:23:52;;;;;;;3.00;1.33;;;13.10;82.90;;;;;;5059397;28;20408;-61
2021/05/17 03:26:21;;;;;;;2.60;1.30;;;13.10;82.90;;;;;;5055314;28;20092;-61
2021/05/17 03:28:46;;;;;;;1.83;1.08;;;13.10;82.80;;;;;;5062906;28;20020;-61
2021/05/17 03:31:12;;;;;;;3.53;1.50;;;13.10;83.50;;;;;;5062244;28;20385;-62
2021/05/17 03:33:38;;;;;;;2.78;1.30;;;13.00;82.80;;;;;;5058580;28;20048;-61
2021/05/17 03:36:04;;;;;;;2.55;1.23;;;13.10;82.70;;;;;;5059015;28;20487;-61
2021/05/17 03:38:30;;;;;;;1.80;1.13;;;13.10;82.70;;;;;;5053204;28;20036;-61
2021/05/17 03:40:55;;;;;;;2.42;1.27;;;13.00;82.60;;;;;;5062585;28;20039;-61
2021/05/17 03:43:21;;;;;;;4.93;1.52;;;13.00;82.60;;;;;;5056995;28;20044;-62
2021/05/17 03:45:46;;;;;;;5.57;1.42;;;13.00;82.60;;;;;;5059998;28;20040;-61
2021/05/17 03:48:12;;;;;;;2.78;1.13;;;13.00;82.60;;;;;;5044155;28;20032;-61
2021/05/17 03:50:37;;;;;;;3.58;1.30;;;13.00;82.50;;;;;;5063042;28;20463;-61
2021/05/17 03:53:03;;;;;;;3.42;1.25;;;13.00;82.50;;;;;;5060144;28;20760;-61
2021/05/17 03:55:28;;;;;;;3.88;1.20;;;13.00;82.50;;;;;;5060164;28;20499;-61
2021/05/17 03:57:58;;;;;;;3.35;1.63;;;13.00;82.50;;;;;;5062180;28;20526;-62
2021/05/17 04:00:26;;;;;;;2.17;1.65;;;13.00;82.50;;;;;;5054972;28;20032;-61
2021/05/17 04:02:52;;;;;;;6.32;1.63;;;12.90;82.40;;;;;;5056390;28;20416;-61
2021/05/17 04:05:36;;;;;;;6.07;1.58;;;13.00;82.50;;;;;;5059645;28;20036;-61
2021/05/17 04:13:20;;;;;;;7.82;2.30;;;12.90;82.50;;;;;;5060890;28;20532;-61
2021/05/17 04:15:45;;;;;;;27.02;2.88;;;12.90;82.50;;;;;;5057100;28;20067;-61
2021/05/17 04:18:11;;;;;;;33.38;5.72;;;12.90;82.60;;;;;;5060401;28;20428;-61
2021/05/17 04:20:37;;;;;;;34.75;4.43;;;12.90;82.70;;;;;;5055593;28;20048;-61
2021/05/17 04:23:03;;;;;;;40.75;4.93;;;12.90;82.80;;;;;;5045189;28;20025;-61
2021/05/17 04:25:28;;;;;;;41.42;6.82;;;12.90;82.90;;;;;;5042881;28;20131;-61
2021/05/17 04:27:54;;;;;;;31.17;4.78;;;12.90;82.90;;;;;;5057117;28;20036;-61
2021/05/17 04:30:20;;;;;;;48.33;6.25;;;12.80;82.90;;;;;;5059687;28;20586;-61
2021/05/17 04:32:45;;;;;;;41.05;6.00;;;12.80;83.00;;;;;;5061659;28;20029;-61
2021/05/17 04:35:11;;;;;;;42.00;5.80;;;12.80;83.10;;;;;;5061660;28;20395;-61
2021/05/17 04:37:37;;;;;;;29.33;4.95;;;12.80;83.90;;;;;;5067141;28;20032;-61
2021/05/17 04:40:03;;;;;;;32.22;5.10;;;12.80;83.40;;;;;;5064237;28;20857;-61
2021/05/17 04:42:29;;;;;;;46.50;6.95;;;12.80;83.70;;;;;;5062443;28;20098;-61
2021/05/17 04:44:54;;;;;;;68.75;7.45;;;12.70;83.70;;;;;;5061853;28;20025;-61
2021/05/17 04:47:20;;;;;;;96.40;8.90;;;12.70;83.80;;;;;;5061901;28;20029;-61
2021/05/17 04:49:45;;;;;;;220.13;18.73;;;12.70;83.90;;;;;;5060657;28;20024;-61
2021/05/17 04:52:11;;;;;;;384.92;25.10;;;12.70;84.00;;;;;;5064374;28;20480;-61
2021/05/17 04:54:36;;;;;;;266.25;19.77;;;12.70;84.10;;;;;;5063366;28;20415;-61
2021/05/17 04:57:02;;;;;;;609.30;48.55;;;12.70;84.20;;;;;;5063792;28;20037;-62
2021/05/17 04:59:27;;;;;;;235.55;20.88;;;12.70;84.20;;;;;;5061340;28;20546;-61
2021/05/17 05:01:53;;;;;;;186.05;15.77;;;12.70;84.20;;;;;;5063141;28;20040;-62
2021/05/17 05:04:18;;;;;;;173.63;13.68;;;12.70;84.20;;;;;;5066441;28;20082;-61
2021/05/17 05:06:44;;;;;;;161.35;12.63;;;12.70;84.30;;;;;;5061097;28;20053;-62
2021/05/17 05:09:10;;;;;;;130.95;11.55;;;12.70;84.20;;;;;;5056938;28;20091;-61
2021/05/17 05:11:35;;;;;;;152.55;11.98;;;12.70;84.20;;;;;;5060038;28;20037;-62
2021/05/17 05:14:01;;;;;;;121.70;11.38;;;12.70;84.20;;;;;;5054662;28;20025;-61
2021/05/17 05:16:27;;;;;;;110.43;10.30;;;12.70;84.20;;;;;;5061510;28;20108;-61
2021/05/17 05:18:53;;;;;;;126.90;11.73;;;12.70;84.20;;;;;;5058560;28;20438;-61
2021/05/17 05:21:18;;;;;;;135.70;11.98;;;12.70;84.10;;;;;;5056991;28;20476;-61
2021/05/17 05:23:45;;;;;;;115.13;12.13;;;12.70;84.10;;;;;;5065808;28;20040;-61
2021/05/17 05:33:52;;;;;;;103.97;8.88;;;12.70;84.10;;;;;;5065240;28;20059;-61
2021/05/17 05:36:17;;;;;;;103.78;9.80;;;12.80;84.20;;;;;;5061942;28;20115;-61
2021/05/17 05:38:43;;;;;;;86.78;9.48;;;12.80;84.20;;;;;;5065670;28;20041;-62
2021/05/17 05:41:08;;;;;;;91.95;9.85;;;12.70;84.20;;;;;;5047983;28;20032;-61
2021/05/17 05:43:34;;;;;;;75.80;9.05;;;12.70;84.20;;;;;;5059557;28;20032;-61
2021/05/17 05:45:59;;;;;;;76.68;8.18;;;12.70;84.20;;;;;;5062859;28;20116;-61
2021/05/17 05:48:25;;;;;;;67.93;7.90;;;12.80;84.10;;;;;;5061313;28;20586;-61
2021/05/17 05:50:52;;;;;;;81.20;8.85;;;12.70;84.00;;;;;;5065724;28;20046;-61
2021/05/17 05:53:17;;;;;;;90.30;8.15;;;12.80;84.10;;;;;;5057177;28;20029;-61
2021/05/17 05:55:43;;;;;;;71.32;7.72;;;12.80;84.10;;;;;;5062971;28;20095;-61
2021/05/17 05:58:09;;;;;;;73.80;8.45;;;12.80;84.00;;;;;;5054165;28;20396;-62
2021/05/17 06:00:35;;;;;;;67.22;7.40;;;12.80;83.90;;;;;;5059325;28;20017;-61
2021/05/17 06:03:01;;;;;;;70.60;6.57;;;12.80;83.80;;;;;;5047979;28;20028;-61
2021/05/17 06:05:26;;;;;;;54.70;6.80;;;12.80;83.70;;;;;;5065367;28;20043;-61
2021/05/17 06:07:52;;;;;;;56.67;6.32;;;12.80;83.80;;;;;;5063961;28;20047;-61
2021/05/17 06:10:18;;;;;;;53.85;6.63;;;12.80;83.70;;;;;;5046577;28;20032;-62
2021/05/17 06:12:46;;;;;;;63.28;7.10;;;12.90;83.80;;;;;;5046107;28;20499;-61
2021/05/17 06:15:12;;;;;;;52.25;6.85;;;12.80;83.80;;;;;;5045963;28;20032;-61
2021/05/17 06:17:38;;;;;;;47.67;5.75;;;12.90;83.80;;;;;;5056292;28;20044;-61
2021/05/17 06:20:04;;;;;;;33.70;4.15;;;12.90;83.70;;;;;;5061428;28;20056;-61
2021/05/17 06:22:30;;;;;;;40.65;4.95;;;12.90;83.70;;;;;;5054395;28;20041;-61
2021/05/17 06:24:58;;;;;;;31.80;5.30;;;12.80;83.60;;;;;;5049141;28;20045;-62
2021/05/17 06:27:23;;;;;;;30.77;4.75;;;12.90;83.60;;;;;;5059817;28;20563;-61
2021/05/17 06:29:52;;;;;;;43.25;5.15;;;12.90;83.40;;;;;;5045216;28;20044;-62
2021/05/17 06:32:18;;;;;;;39.33;4.10;;;12.90;83.30;;;;;;5056595;28;20033;-62
2021/05/17 06:34:43;;;;;;;44.38;6.28;;;12.90;83.30;;;;;;5059377;28;20094;-61
2021/05/17 06:37:09;;;;;;;48.33;6.20;;;12.90;83.40;;;;;;5044483;28;20029;-61
2021/05/17 06:39:34;;;;;;;47.78;5.80;;;12.90;83.40;;;;;;5058721;28;20041;-61
2021/05/17 06:42:00;;;;;;;38.72;5.18;;;12.90;83.30;;;;;;5049410;28;20623;-61
2021/05/17 06:44:25;;;;;;;40.45;5.93;;;13.00;83.40;;;;;;5061459;28;20040;-61
2021/05/17 06:46:51;;;;;;;64.78;6.32;;;13.00;83.40;;;;;;5061392;28;20051;-61
2021/05/17 06:49:17;;;;;;;82.95;7.60;;;13.00;83.40;;;;;;5063069;28;20025;-61
2021/05/17 06:51:42;;;;;;;50.78;6.28;;;13.00;83.40;;;;;;5062149;28;20033;-61
2021/05/17 06:54:09;;;;;;;37.78;5.18;;;13.00;83.30;;;;;;5060369;28;20052;-61
2021/05/17 06:56:53;;;;;;;42.38;5.68;;;13.10;83.40;;;;;;5057627;28;20487;-61
2021/05/17 06:59:20;;;;;;;42.55;5.43;;;13.10;83.20;;;;;;5059458;28;20020;-61
2021/05/17 07:01:45;;;;;;;46.78;5.88;;;13.10;83.30;;;;;;5062270;28;20151;-61
2021/05/17 07:04:15;;;;;;;57.00;6.35;;;13.10;83.30;;;;;;5049385;28;20036;-61
2021/05/17 07:06:41;;;;;;;60.70;6.95;;;13.20;83.60;;;;;;5053017;28;20031;-61
2021/05/17 07:12:03;;;;;;;53.60;6.28;;;13.20;83.30;;;;;;5060392;28;20116;-61
2021/05/17 07:14:29;;;;;;;48.22;5.68;;;13.20;83.50;;;;;;5063415;28;20038;-61
2021/05/17 07:16:54;;;;;;;50.25;6.03;;;13.20;83.30;;;;;;5062673;28;20028;-61
2021/05/17 07:19:20;;;;;;;52.22;7.00;;;13.20;83.30;;;;;;5056334;28;20423;-61
2021/05/17 07:24:31;;;;;;;52.45;5.72;;;13.20;83.40;;;;;;5058664;28;20934;-61
2021/05/17 07:26:56;;;;;;;91.38;6.80;;;13.20;83.30;;;;;;5052046;28;20028;-61
2021/05/17 07:29:22;;;;;;;53.60;7.20;;;13.30;83.40;;;;;;5055680;28;20033;-61
2021/05/17 07:31:48;;;;;;;52.95;6.65;;;13.30;83.40;;;;;;5054746;28;20118;-61
2021/05/17 07:34:14;;;;;;;65.38;7.07;;;13.30;83.30;;;;;;5052161;28;20047;-61
2021/05/17 07:36:39;;;;;;;63.80;6.13;;;13.30;83.40;;;;;;5055109;28;20108;-61
2021/05/17 07:39:05;;;;;;;45.42;6.63;;;13.30;83.20;;;;;;5052501;28;20036;-61
2021/05/17 07:41:31;;;;;;;58.30;6.10;;;13.30;83.20;;;;;;5052038;28;20024;-61
2021/05/17 07:43:56;;;;;;;54.03;5.60;;;13.30;83.00;;;;;;5055884;28;20060;-61
2021/05/17 07:46:22;;;;;;;57.03;6.43;;;13.40;82.80;;;;;;5058288;28;20041;-62
2021/05/17 07:51:31;;;;;;;81.13;7.00;;;13.40;82.40;;;;;;5054568;28;20027;-61
2021/05/17 07:53:57;;;;;;;72.50;7.38;;;13.40;82.50;;;;;;5051980;28;20032;-61
2021/05/17 07:56:23;;;;;;;65.53;6.82;;;13.40;82.30;;;;;;5050981;28;20454;-62
2021/05/17 07:58:51;;;;;;;63.55;6.25;;;13.50;82.10;;;;;;5052316;28;20037;-61
2021/05/17 08:01:16;;;;;;;54.58;6.25;;;13.50;82.00;;;;;;5049238;28;20504;-61
2021/05/17 08:03:42;;;;;;;62.67;6.78;;;13.50;82.00;;;;;;5055024;28;20076;-61
2021/05/17 08:06:07;;;;;;;58.83;6.05;;;13.60;82.50;;;;;;5060322;28;20453;-62
2021/05/17 08:08:34;;;;;;;47.40;6.00;;;13.50;81.80;;;;;;5056458;28;20808;-62
2021/05/17 08:11:00;;;;;;;45.75;6.38;;;13.60;81.90;;;;;;5058452;28;20048;-62
2021/05/17 08:13:26;;;;;;;57.58;6.13;;;13.60;81.90;;;;;;5034303;28;20040;-61
2021/05/17 08:15:52;;;;;;;48.47;6.88;;;13.60;81.60;;;;;;5052176;28;20055;-61
2021/05/17 08:18:17;;;;;;;53.15;7.22;;;13.70;81.60;;;;;;5050376;28;20106;-61
2021/05/17 08:20:43;;;;;;;41.33;6.05;;;13.70;81.50;;;;;;5053489;28;20484;-61
2021/05/17 08:23:13;;;;;;;59.63;6.53;;;13.70;81.40;;;;;;5055484;28;20032;-61
2021/05/17 08:25:38;;;;;;;57.30;7.32;;;13.70;81.40;;;;;;5052843;28;20132;-61
2021/05/17 08:28:04;;;;;;;58.53;5.95;;;13.70;81.40;;;;;;5043120;28;20539;-61
2021/05/17 08:30:30;;;;;;;37.28;5.53;;;13.70;81.30;;;;;;5063766;28;20021;-61
2021/05/17 08:32:55;;;;;;;30.33;4.63;;;13.70;81.10;;;;;;5055818;28;20016;-62
2021/05/17 08:35:21;;;;;;;29.45;4.63;;;13.70;81.00;;;;;;5058051;28;20400;-62
2021/05/17 08:37:46;;;;;;;38.72;4.75;;;13.70;81.30;;;;;;5052694;28;20044;-62
2021/05/17 08:40:13;;;;;;;45.30;4.97;;;13.70;81.40;;;;;;5053033;28;20041;-61
2021/05/17 08:42:40;;;;;;;38.20;3.78;;;13.80;81.30;;;;;;5040579;28;20116;-61
2021/05/17 08:45:06;;;;;;;38.80;5.25;;;13.80;81.00;;;;;;5060975;28;20228;-62
2021/05/17 08:47:32;;;;;;;30.95;3.70;;;13.80;80.90;;;;;;5057683;28;20040;-61
2021/05/17 08:49:57;;;;;;;30.45;4.20;;;13.80;80.80;;;;;;5040898;28;20239;-61
2021/05/17 08:52:25;;;;;;;37.75;4.65;;;13.80;80.70;;;;;;5061078;28;20024;-62
2021/05/17 08:54:50;;;;;;;43.60;4.93;;;13.90;80.80;;;;;;5055885;28;20025;-61
2021/05/17 08:57:16;;;;;;;34.53;4.03;;;13.90;80.30;;;;;;5054344;28;20419;-62
2021/05/17 08:59:41;;;;;;;35.53;4.03;;;14.00;80.10;;;;;;5052506;28;20441;-62
2021/05/17 09:02:07;;;;;;;38.25;3.90;;;14.00;80.00;;;;;;5050419;28;20531;-62
2021/05/17 09:04:32;;;;;;;29.73;4.63;;;14.00;80.00;;;;;;5043532;28;20503;-61
2021/05/17 09:07:00;;;;;;;45.97;5.03;;;14.10;79.70;;;;;;5054773;28;20055;-61
2021/05/17 09:09:32;;;;;;;51.33;5.43;;;14.10;79.60;;;;;;5054861;28;20096;-61
2021/05/17 09:12:03;;;;;;;42.70;4.35;;;14.10;79.50;;;;;;5056677;28;20021;-62
2021/05/17 09:14:29;;;;;;;57.45;5.80;;;14.20;79.70;;;;;;5042767;28;20035;-62
2021/05/17 09:17:02;;;;;;;43.10;5.53;;;14.20;79.90;;;;;;5043834;28;20032;-61
2021/05/17 09:19:28;;;;;;;56.85;5.50;;;14.20;80.20;;;;;;5056854;28;20067;-61
2021/05/17 09:22:21;;;;;;;45.97;5.20;;;14.20;80.00;;;;;;5060051;28;20030;-61
2021/05/17 09:24:51;;;;;;;53.30;6.00;;;14.10;80.00;;;;;;5052812;28;20141;-62
2021/05/17 09:27:21;;;;;;;61.55;6.50;;;14.30;80.20;;;;;;5059882;28;20048;-61
2021/05/17 09:29:55;;;;;;;67.95;6.57;;;14.40;80.20;;;;;;5055937;28;20343;-62
2021/05/17 09:32:27;;;;;;;33.75;5.32;;;14.40;80.40;;;;;;5060481;28;20021;-61
2021/05/17 09:35:09;;;;;;;55.05;6.60;;;14.40;80.50;;;;;;5054408;28;20029;-61
2021/05/17 09:37:56;;;;;;;144.85;12.45;;;14.40;80.30;;;;;;5055107;28;20021;-62
2021/05/17 09:40:29;;;;;;;78.15;9.35;;;14.50;80.00;;;;;;5061092;28;20039;-61
2021/05/17 09:43:07;;;;;;;71.20;7.38;;;14.50;79.70;;;;;;5058863;28;20033;-61
2021/05/17 09:45:34;;;;;;;71.32;6.85;;;14.60;79.50;;;;;;5056249;28;20266;-61
2021/05/17 09:48:00;;;;;;;76.55;9.45;;;14.50;79.30;;;;;;5061704;28;20021;-61
2021/05/17 09:50:25;;;;;;;59.28;6.55;;;14.60;79.30;;;;;;5044984;28;20029;-62
2021/05/17 09:52:51;;;;;;;66.95;8.93;;;14.60;79.30;;;;;;5063053;28;20044;-62
2021/05/17 09:55:16;;;;;;;91.00;8.50;;;14.70;79.10;;;;;;5057856;28;20110;-61
2021/05/17 09:57:43;;;;;;;67.00;7.53;;;14.70;79.00;;;;;;5053698;28;20052;-61
2021/05/17 10:00:09;;;;;;;111.90;10.50;;;14.80;79.10;;;;;;5050811;28;20021;-61
2021/05/17 10:02:40;;;;;;;106.07;10.15;;;14.80;79.00;;;;;;5055410;28;20036;-61
2021/05/17 10:05:18;;;;;;;80.88;9.10;;;14.90;78.90;;;;;;5061610;28;20033;-61
2021/05/17 10:07:44;;;;;;;80.82;9.65;;;14.90;78.80;;;;;;5058327;28;20040;-61
2021/05/17 10:10:12;;;;;;;132.88;12.52;;;14.90;78.60;;;;;;5051856;28;20025;-62
2021/05/17 10:12:38;;;;;;;95.90;10.13;;;15.00;78.50;;;;;;5056157;28;20116;-61
2021/05/17 10:15:05;;;;;;;106.55;11.63;;;15.00;78.40;;;;;;5057358;28;20131;-61
2021/05/17 10:17:35;;;;;;;68.38;8.07;;;15.00;78.40;;;;;;5072926;28;20024;-62
2021/05/17 10:20:04;;;;;;;81.68;8.02;;;15.10;78.40;;;;;;5045624;28;20094;-62
2021/05/17 10:22:30;;;;;;;75.50;8.88;;;15.10;78.00;;;;;;5058233;28;20531;-62
2021/05/17 10:24:59;;;;;;;93.22;10.15;;;15.10;77.80;;;;;;5062175;28;20127;-61
2021/05/17 10:27:26;;;;;;;63.25;7.35;;;15.20;77.80;;;;;;5050622;28;20020;-61
2021/05/17 10:29:52;;;;;;;57.10;7.50;;;15.20;77.60;;;;;;5043959;28;20447;-61
2021/05/17 10:32:17;;;;;;;78.15;7.65;;;15.20;77.50;;;;;;5041531;28;20032;-62
2021/05/17 10:34:49;;;;;;;63.45;7.28;;;15.30;77.40;;;;;;5048897;28;20060;-61
2021/05/17 10:37:21;;;;;;;66.55;7.38;;;15.30;77.10;;;;;;5053480;28;20453;-61
2021/05/17 10:39:53;;;;;;;80.40;8.43;;;15.30;76.90;;;;;;5054276;28;20503;-62
2021/05/17 10:42:36;;;;;;;58.83;5.95;;;15.40;77.00;;;;;;5059630;28;20033;-61
2021/05/17 10:47:49;;;;;;;80.80;7.80;;;15.50;76.50;;;;;;5061385;28;20044;-61
2021/05/17 10:50:16;;;;;;;59.88;6.78;;;15.50;76.40;;;;;;5045310;28;20116;-62
2021/05/17 10:52:42;;;;;;;64.05;6.80;;;15.50;76.10;;;;;;5056254;28;20025;-61
2021/05/17 10:55:12;;;;;;;65.10;6.50;;;15.50;76.20;;;;;;5058974;28;20094;-62
2021/05/17 11:00:34;;;;;;;45.90;5.50;;;15.60;76.00;;;;;;5056234;28;20060;-61
2021/05/17 11:03:12;;;;;;;73.00;6.63;;;15.70;75.80;;;;;;5044862;28;20109;-62
2021/05/17 11:05:39;;;;;;;60.95;7.20;;;15.70;75.90;;;;;;5058151;28;20055;-62
2021/05/17 11:08:08;;;;;;;52.22;6.45;;;15.70;75.50;;;;;;5062617;28;20032;-61
2021/05/17 11:10:41;;;;;;;43.15;6.15;;;15.80;76.10;;;;;;5045407;28;20491;-62
2021/05/17 11:13:09;;;;;;;70.97;6.50;;;15.90;74.90;;;;;;5058269;28;20055;-61
2021/05/17 11:16:03;;;;;;;45.70;6.25;;;15.90;74.80;;;;;;5042489;28;20029;-61
2021/05/17 11:18:38;;;;;;;71.30;6.32;;;16.00;74.50;;;;;;5061887;28;20357;-62
2021/05/17 11:21:05;;;;;;;59.03;7.30;;;16.00;74.10;;;;;;5052552;28;20059;-62
2021/05/17 11:23:37;;;;;;;40.95;5.32;;;16.10;73.90;;;;;;5061046;28;20035;-62
2021/05/17 11:26:09;;;;;;;58.28;5.47;;;16.20;73.80;;;;;;5061115;28;20121;-61
2021/05/17 11:28:38;;;;;;;48.97;5.55;;;16.30;73.20;;;;;;5056653;28;20074;-61
2021/05/17 11:31:04;;;;;;;39.65;5.20;;;16.30;73.20;;;;;;5060123;28;20052;-61
2021/05/17 11:33:49;;;;;;;50.28;5.10;;;16.30;72.80;;;;;;5062496;28;20017;-62
2021/05/17 11:36:19;;;;;;;30.25;4.13;;;16.40;72.90;;;;;;5059131;28;20056;-61
2021/05/17 11:39:07;;;;;;;61.00;7.18;;;16.40;72.60;;;;;;5058650;28;20029;-61
2021/05/17 11:41:53;;;;;;;46.22;5.60;;;16.50;72.30;;;;;;5039974;28;20107;-61
2021/05/17 11:44:23;;;;;;;52.95;5.10;;;16.60;72.20;;;;;;5054037;28;22187;-61
2021/05/17 11:46:58;;;;;;;45.35;4.85;;;16.60;72.10;;;;;;5059874;28;20059;-61
2021/05/17 11:49:25;;;;;;;51.15;5.22;;;16.70;71.50;;;;;;5061841;28;20036;-62
2021/05/17 11:52:01;;;;;;;42.97;4.35;;;16.80;70.90;;;;;;5053299;28;20044;-61
2021/05/17 11:54:33;;;;;;;45.72;5.47;;;16.90;70.40;;;;;;5058628;28;20040;-61
2021/05/17 11:57:00;;;;;;;54.17;5.13;;;17.00;70.40;;;;;;5056546;28;20067;-61
2021/05/17 11:59:26;;;;;;;40.03;4.22;;;17.10;70.30;;;;;;5061676;28;20024;-61
2021/05/17 12:01:53;;;;;;;31.10;4.25;;;17.10;70.30;;;;;;5060662;28;20673;-61
2021/05/17 12:04:21;;;;;;;47.88;4.60;;;17.10;70.70;;;;;;5068398;28;20510;-60
2021/05/17 12:06:54;;;;;;;53.67;5.75;;;17.10;71.10;;;;;;5059810;28;20029;-60
2021/05/17 12:09:29;;;;;;;37.20;3.13;;;17.00;71.40;;;;;;5062943;28;20024;-61
2021/05/17 12:11:55;;;;;;;26.27;3.22;;;17.00;72.20;;;;;;5058372;28;20114;-61
2021/05/17 12:14:21;;;;;;;21.88;3.20;;;17.10;72.70;;;;;;5058136;28;20115;-61
2021/05/17 12:16:58;;;;;;;34.10;4.63;;;17.10;73.20;;;;;;5060941;28;20071;-61
2021/05/17 12:19:24;;;;;;;55.53;5.00;;;17.10;73.10;;;;;;5055397;28;20082;-61
2021/05/17 12:21:49;;;;;;;30.88;3.75;;;17.20;73.30;;;;;;5060956;28;20036;-61
2021/05/17 12:24:25;;;;;;;51.45;5.45;;;17.30;73.40;;;;;;5059261;28;20603;-61
2021/05/17 12:26:59;;;;;;;82.90;8.05;;;17.30;73.60;;;;;;5056502;28;20021;-61
2021/05/17 12:29:24;;;;;;;60.08;6.13;;;17.30;73.60;;;;;;5061184;28;20068;-61
2021/05/17 12:31:51;;;;;;;59.15;5.88;;;17.30;73.90;;;;;;5053986;28;20108;-61
2021/05/17 12:34:16;;;;;;;61.35;6.18;;;17.30;73.90;;;;;;5038879;28;20038;-62
2021/05/17 12:36:42;;;;;;;81.80;6.85;;;17.70;74.10;;;;;;5060764;28;20089;-61
2021/05/17 12:39:17;;;;;;;70.97;7.70;;;17.50;73.90;;;;;;5058232;28;20108;-61
2021/05/17 12:41:44;;;;;;;83.60;8.00;;;17.50;73.40;;;;;;5059741;28;20059;-62
2021/05/17 12:44:39;;;;;;;49.63;7.57;;;17.60;73.00;;;;;;5054397;28;20037;-62
2021/05/17 12:47:06;;;;;;;75.60;7.65;;;17.70;73.10;;;;;;5054834;28;20046;-62
2021/05/17 12:49:51;;;;;;;67.25;6.60;;;17.70;72.40;;;;;;5057564;28;20037;-61
2021/05/17 12:52:31;;;;;;;70.57;6.65;;;17.80;72.80;;;;;;5057725;28;20537;-61
2021/05/17 12:55:26;;;;;;;58.13;6.35;;;17.90;72.60;;;;;;5062178;28;20041;-61
2021/05/17 12:57:54;;;;;;;62.90;7.55;;;18.00;72.30;;;;;;5049669;28;20044;-62
2021/05/17 13:00:39;;;;;;;58.33;6.97;;;18.10;72.40;;;;;;5061005;28;20116;-61
2021/05/17 13:03:06;;;;;;;52.65;6.15;;;18.20;71.90;;;;;;5062226;28;20032;-62
2021/05/17 13:05:58;;;;;;;63.83;7.25;;;18.20;71.20;;;;;;5062498;28;20032;-62
2021/05/17 13:08:37;;;;;;;64.22;6.47;;;18.30;71.50;;;;;;5061991;28;20057;-61
2021/05/17 13:11:03;;;;;;;77.38;7.15;;;18.30;71.70;;;;;;5056697;28;20485;-61